sensor_id;sensor_type;location;lat;lon;timestamp;temperature;humidity
75451;DHT22;64029;48.244;9.188;2023-06-04T00:00:16;14.50;61.10
75451;DHT22;64029;48.244;9.188;2023-06-04T00:02:43;14.40;62.00
75451;DHT22;64029;48.244;9.188;2023-06-04T00:05:10;14.40;61.40
75451;DHT22;64029;48.244;9.188;2023-06-04T00:07:37;14.30;61.20
75451;DHT22;64029;48.244;9.188;2023-06-04T00:10:04;14.30;61.00
75451;DHT22;64029;48.244;9.188;2023-06-04T00:12:31;14.40;60.80
75451;DHT22;64029;48.244;9.188;2023-06-04T00:15:00;14.30;60.90
75451;DHT22;64029;48.244;9.188;2023-06-04T00:17:26;14.20;61.20
75451;DHT22;64029;48.244;9.188;2023-06-04T00:19:53;14.10;61.40
75451;DHT22;64029;48.244;9.188;2023-06-04T00:22:20;14.10;61.40
75451;DHT22;64029;48.244;9.188;2023-06-04T00:24:47;14.00;61.40
75451;DHT22;64029;48.244;9.188;2023-06-04T00:27:14;14.00;62.30
75451;DHT22;64029;48.244;9.188;2023-06-04T00:29:40;13.90;61.50
75451;DHT22;64029;48.244;9.188;2023-06-04T00:32:09;13.90;61.70
75451;DHT22;64029;48.244;9.188;2023-06-04T00:34:36;13.80;62.00
75451;DHT22;64029;48.244;9.188;2023-06-04T00:37:03;13.80;62.00
75451;DHT22;64029;48.244;9.188;2023-06-04T00:39:29;13.80;61.70
75451;DHT22;64029;48.244;9.188;2023-06-04T00:41:56;13.70;61.60
75451;DHT22;64029;48.244;9.188;2023-06-04T00:44:23;13.70;61.80
75451;DHT22;64029;48.244;9.188;2023-06-04T00:46:51;13.70;61.90
75451;DHT22;64029;48.244;9.188;2023-06-04T00:49:20;13.60;62.00
75451;DHT22;64029;48.244;9.188;2023-06-04T00:51:47;13.50;62.30
75451;DHT22;64029;48.244;9.188;2023-06-04T00:54:14;13.40;62.30
75451;DHT22;64029;48.244;9.188;2023-06-04T00:56:43;13.40;62.40
75451;DHT22;64029;48.244;9.188;2023-06-04T00:59:10;13.40;62.60
75451;DHT22;64029;48.244;9.188;2023-06-04T01:01:48;13.30;62.60
75451;DHT22;64029;48.244;9.188;2023-06-04T01:04:21;13.30;62.90
75451;DHT22;64029;48.244;9.188;2023-06-04T01:06:50;13.20;62.90
75451;DHT22;64029;48.244;9.188;2023-06-04T01:09:20;13.20;62.80
75451;DHT22;64029;48.244;9.188;2023-06-04T01:11:47;13.10;62.80
75451;DHT22;64029;48.244;9.188;2023-06-04T01:14:14;13.20;62.70
75451;DHT22;64029;48.244;9.188;2023-06-04T01:16:47;13.10;62.30
75451;DHT22;64029;48.244;9.188;2023-06-04T01:19:29;13.10;62.60
75451;DHT22;64029;48.244;9.188;2023-06-04T01:22:04;13.00;62.70
75451;DHT22;64029;48.244;9.188;2023-06-04T01:24:35;13.00;62.90
75451;DHT22;64029;48.244;9.188;2023-06-04T01:27:05;12.90;62.90
75451;DHT22;64029;48.244;9.188;2023-06-04T01:29:33;12.90;62.60
75451;DHT22;64029;48.244;9.188;2023-06-04T01:32:01;12.80;62.90
75451;DHT22;64029;48.244;9.188;2023-06-04T01:34:30;12.80;63.00
75451;DHT22;64029;48.244;9.188;2023-06-04T01:36:57;12.80;62.80
75451;DHT22;64029;48.244;9.188;2023-06-04T01:39:24;12.70;63.00
75451;DHT22;64029;48.244;9.188;2023-06-04T01:41:51;12.70;62.90
75451;DHT22;64029;48.244;9.188;2023-06-04T01:44:17;12.70;63.70
75451;DHT22;64029;48.244;9.188;2023-06-04T01:46:45;12.60;63.30
75451;DHT22;64029;48.244;9.188;2023-06-04T01:49:11;12.50;63.40
75451;DHT22;64029;48.244;9.188;2023-06-04T01:51:39;12.50;63.40
75451;DHT22;64029;48.244;9.188;2023-06-04T01:54:06;12.40;63.30
75451;DHT22;64029;48.244;9.188;2023-06-04T01:56:33;12.40;63.20
75451;DHT22;64029;48.244;9.188;2023-06-04T01:59:00;12.40;63.40
75451;DHT22;64029;48.244;9.188;2023-06-04T02:01:27;12.30;63.50
75451;DHT22;64029;48.244;9.188;2023-06-04T02:03:54;12.30;63.50
75451;DHT22;64029;48.244;9.188;2023-06-04T02:06:21;12.30;63.30
75451;DHT22;64029;48.244;9.188;2023-06-04T02:08:51;12.30;63.40
75451;DHT22;64029;48.244;9.188;2023-06-04T02:11:19;12.20;63.50
75451;DHT22;64029;48.244;9.188;2023-06-04T02:13:46;12.10;63.50
75451;DHT22;64029;48.244;9.188;2023-06-04T02:16:13;12.10;63.60
75451;DHT22;64029;48.244;9.188;2023-06-04T02:18:40;12.10;63.40
75451;DHT22;64029;48.244;9.188;2023-06-04T02:21:07;12.10;63.50
75451;DHT22;64029;48.244;9.188;2023-06-04T02:23:33;12.10;63.70
75451;DHT22;64029;48.244;9.188;2023-06-04T02:26:02;12.00;63.90
75451;DHT22;64029;48.244;9.188;2023-06-04T02:28:28;11.90;63.90
75451;DHT22;64029;48.244;9.188;2023-06-04T02:30:55;11.90;63.80
75451;DHT22;64029;48.244;9.188;2023-06-04T02:33:22;11.90;63.90
75451;DHT22;64029;48.244;9.188;2023-06-04T02:35:49;11.80;64.00
75451;DHT22;64029;48.244;9.188;2023-06-04T02:38:16;11.80;64.20
75451;DHT22;64029;48.244;9.188;2023-06-04T02:40:43;11.70;64.10
75451;DHT22;64029;48.244;9.188;2023-06-04T02:43:11;11.70;64.10
75451;DHT22;64029;48.244;9.188;2023-06-04T02:45:38;11.70;64.10
75451;DHT22;64029;48.244;9.188;2023-06-04T02:48:05;11.60;64.10
75451;DHT22;64029;48.244;9.188;2023-06-04T02:50:32;11.60;63.90
75451;DHT22;64029;48.244;9.188;2023-06-04T02:52:59;11.70;63.50
75451;DHT22;64029;48.244;9.188;2023-06-04T02:55:26;11.60;64.10
75451;DHT22;64029;48.244;9.188;2023-06-04T02:57:52;11.50;64.10
75451;DHT22;64029;48.244;9.188;2023-06-04T03:00:21;11.60;63.90
75451;DHT22;64029;48.244;9.188;2023-06-04T03:02:48;11.50;64.10
75451;DHT22;64029;48.244;9.188;2023-06-04T03:05:16;11.50;64.30
75451;DHT22;64029;48.244;9.188;2023-06-04T03:07:45;11.40;64.80
75451;DHT22;64029;48.244;9.188;2023-06-04T03:10:13;11.30;64.90
75451;DHT22;64029;48.244;9.188;2023-06-04T03:12:40;11.30;64.70
75451;DHT22;64029;48.244;9.188;2023-06-04T03:15:08;11.30;64.70
75451;DHT22;64029;48.244;9.188;2023-06-04T03:17:37;11.20;64.70
75451;DHT22;64029;48.244;9.188;2023-06-04T03:20:05;11.20;64.60
75451;DHT22;64029;48.244;9.188;2023-06-04T03:22:32;11.20;64.50
75451;DHT22;64029;48.244;9.188;2023-06-04T03:25:01;11.20;64.40
75451;DHT22;64029;48.244;9.188;2023-06-04T03:27:31;11.20;64.40
75451;DHT22;64029;48.244;9.188;2023-06-04T03:29:58;11.20;64.10
75451;DHT22;64029;48.244;9.188;2023-06-04T03:32:25;11.10;64.40
75451;DHT22;64029;48.244;9.188;2023-06-04T03:34:54;11.10;64.50
75451;DHT22;64029;48.244;9.188;2023-06-04T03:37:21;11.00;63.90
75451;DHT22;64029;48.244;9.188;2023-06-04T03:39:48;11.00;64.10
75451;DHT22;64029;48.244;9.188;2023-06-04T03:42:15;11.00;64.30
75451;DHT22;64029;48.244;9.188;2023-06-04T03:44:42;11.00;63.90
75451;DHT22;64029;48.244;9.188;2023-06-04T03:47:08;10.90;64.00
75451;DHT22;64029;48.244;9.188;2023-06-04T03:49:35;10.90;64.40
75451;DHT22;64029;48.244;9.188;2023-06-04T03:52:04;10.90;64.30
75451;DHT22;64029;48.244;9.188;2023-06-04T03:54:31;10.80;64.40
75451;DHT22;64029;48.244;9.188;2023-06-04T03:56:57;10.80;65.20
75451;DHT22;64029;48.244;9.188;2023-06-04T03:59:24;10.80;64.50
75451;DHT22;64029;48.244;9.188;2023-06-04T04:01:51;10.80;64.60
75451;DHT22;64029;48.244;9.188;2023-06-04T04:04:18;10.80;64.90
75451;DHT22;64029;48.244;9.188;2023-06-04T04:06:48;10.70;64.50
75451;DHT22;64029;48.244;9.188;2023-06-04T04:09:16;10.80;64.30
75451;DHT22;64029;48.244;9.188;2023-06-04T04:11:43;10.70;64.10
75451;DHT22;64029;48.244;9.188;2023-06-04T04:14:10;10.80;63.60
75451;DHT22;64029;48.244;9.188;2023-06-04T04:16:36;10.70;64.00
75451;DHT22;64029;48.244;9.188;2023-06-04T04:19:03;10.70;64.00
75451;DHT22;64029;48.244;9.188;2023-06-04T04:21:33;10.70;64.00
75451;DHT22;64029;48.244;9.188;2023-06-04T04:24:02;10.60;64.10
75451;DHT22;64029;48.244;9.188;2023-06-04T04:26:30;10.70;64.00
75451;DHT22;64029;48.244;9.188;2023-06-04T04:28:57;10.60;64.00
75451;DHT22;64029;48.244;9.188;2023-06-04T04:31:25;10.60;64.50
75451;DHT22;64029;48.244;9.188;2023-06-04T04:33:54;10.60;64.50
75451;DHT22;64029;48.244;9.188;2023-06-04T04:36:21;10.60;65.20
75451;DHT22;64029;48.244;9.188;2023-06-04T04:38:48;10.60;65.40
75451;DHT22;64029;48.244;9.188;2023-06-04T04:41:19;10.60;65.40
75451;DHT22;64029;48.244;9.188;2023-06-04T04:43:49;10.60;65.00
75451;DHT22;64029;48.244;9.188;2023-06-04T04:46:16;10.60;65.20
75451;DHT22;64029;48.244;9.188;2023-06-04T04:48:43;10.60;66.00
75451;DHT22;64029;48.244;9.188;2023-06-04T04:51:10;10.60;66.60
75451;DHT22;64029;48.244;9.188;2023-06-04T04:53:37;10.60;66.10
75451;DHT22;64029;48.244;9.188;2023-06-04T04:56:04;10.60;65.20
75451;DHT22;64029;48.244;9.188;2023-06-04T04:58:31;10.60;64.70
75451;DHT22;64029;48.244;9.188;2023-06-04T05:00:59;10.60;66.70
75451;DHT22;64029;48.244;9.188;2023-06-04T05:03:26;10.60;66.30
75451;DHT22;64029;48.244;9.188;2023-06-04T05:05:52;10.70;66.20
75451;DHT22;64029;48.244;9.188;2023-06-04T05:08:19;10.70;67.00
75451;DHT22;64029;48.244;9.188;2023-06-04T05:10:46;10.70;66.20
75451;DHT22;64029;48.244;9.188;2023-06-04T05:13:13;10.70;66.50
75451;DHT22;64029;48.244;9.188;2023-06-04T05:15:40;10.70;68.70
75451;DHT22;64029;48.244;9.188;2023-06-04T05:18:09;10.70;66.90
75451;DHT22;64029;48.244;9.188;2023-06-04T05:20:36;10.80;69.00
75451;DHT22;64029;48.244;9.188;2023-06-04T05:23:03;10.80;68.70
75451;DHT22;64029;48.244;9.188;2023-06-04T05:25:30;10.80;68.70
75451;DHT22;64029;48.244;9.188;2023-06-04T05:27:57;10.90;69.20
75451;DHT22;64029;48.244;9.188;2023-06-04T05:30:24;10.90;68.70
75451;DHT22;64029;48.244;9.188;2023-06-04T05:32:51;10.90;68.70
75451;DHT22;64029;48.244;9.188;2023-06-04T05:35:20;11.00;67.90
75451;DHT22;64029;48.244;9.188;2023-06-04T05:37:47;11.00;66.90
75451;DHT22;64029;48.244;9.188;2023-06-04T05:40:19;11.10;67.10
75451;DHT22;64029;48.244;9.188;2023-06-04T05:42:46;11.10;66.80
75451;DHT22;64029;48.244;9.188;2023-06-04T05:45:13;11.20;66.90
75451;DHT22;64029;48.244;9.188;2023-06-04T05:47:40;11.20;67.00
75451;DHT22;64029;48.244;9.188;2023-06-04T05:50:08;11.30;66.50
75451;DHT22;64029;48.244;9.188;2023-06-04T05:52:36;11.40;67.00
75451;DHT22;64029;48.244;9.188;2023-06-04T05:55:03;11.40;66.20
75451;DHT22;64029;48.244;9.188;2023-06-04T05:57:33;11.50;66.30
75451;DHT22;64029;48.244;9.188;2023-06-04T05:59:59;11.60;66.70
75451;DHT22;64029;48.244;9.188;2023-06-04T06:02:26;11.70;66.60
75451;DHT22;64029;48.244;9.188;2023-06-04T06:04:53;11.80;66.00
75451;DHT22;64029;48.244;9.188;2023-06-04T06:07:20;11.90;66.40
75451;DHT22;64029;48.244;9.188;2023-06-04T06:09:50;12.10;66.50
75451;DHT22;64029;48.244;9.188;2023-06-04T06:12:16;12.30;66.10
75451;DHT22;64029;48.244;9.188;2023-06-04T06:14:43;12.40;66.20
75451;DHT22;64029;48.244;9.188;2023-06-04T06:17:10;12.50;66.00
75451;DHT22;64029;48.244;9.188;2023-06-04T06:19:37;12.70;66.20
75451;DHT22;64029;48.244;9.188;2023-06-04T06:22:04;12.90;65.80
75451;DHT22;64029;48.244;9.188;2023-06-04T06:24:31;13.00;65.70
75451;DHT22;64029;48.244;9.188;2023-06-04T06:26:59;13.20;65.50
75451;DHT22;64029;48.244;9.188;2023-06-04T06:29:26;13.30;65.40
75451;DHT22;64029;48.244;9.188;2023-06-04T06:31:52;13.50;65.70
75451;DHT22;64029;48.244;9.188;2023-06-04T06:34:19;13.60;66.20
75451;DHT22;64029;48.244;9.188;2023-06-04T06:36:46;13.80;66.20
75451;DHT22;64029;48.244;9.188;2023-06-04T06:39:13;14.00;65.90
75451;DHT22;64029;48.244;9.188;2023-06-04T06:41:40;14.10;66.10
75451;DHT22;64029;48.244;9.188;2023-06-04T06:44:08;14.30;65.20
75451;DHT22;64029;48.244;9.188;2023-06-04T06:46:35;14.50;65.50
75451;DHT22;64029;48.244;9.188;2023-06-04T06:49:02;14.70;65.30
75451;DHT22;64029;48.244;9.188;2023-06-04T06:51:29;14.90;64.90
75451;DHT22;64029;48.244;9.188;2023-06-04T06:53:55;15.10;64.80
75451;DHT22;64029;48.244;9.188;2023-06-04T06:56:22;15.40;64.80
75451;DHT22;64029;48.244;9.188;2023-06-04T06:58:49;15.60;64.10
75451;DHT22;64029;48.244;9.188;2023-06-04T07:01:18;15.90;63.50
75451;DHT22;64029;48.244;9.188;2023-06-04T07:03:45;16.30;65.00
75451;DHT22;64029;48.244;9.188;2023-06-04T07:06:12;16.60;64.20
75451;DHT22;64029;48.244;9.188;2023-06-04T07:08:39;16.90;63.70
75451;DHT22;64029;48.244;9.188;2023-06-04T07:11:07;17.20;64.40
75451;DHT22;64029;48.244;9.188;2023-06-04T07:13:37;17.50;64.80
75451;DHT22;64029;48.244;9.188;2023-06-04T07:16:04;17.80;63.30
75451;DHT22;64029;48.244;9.188;2023-06-04T07:18:33;18.20;64.10
75451;DHT22;64029;48.244;9.188;2023-06-04T07:21:00;18.40;63.50
75451;DHT22;64029;48.244;9.188;2023-06-04T07:23:26;18.60;63.00
75451;DHT22;64029;48.244;9.188;2023-06-04T07:25:54;18.90;63.50
75451;DHT22;64029;48.244;9.188;2023-06-04T07:28:21;19.20;63.30
75451;DHT22;64029;48.244;9.188;2023-06-04T07:30:48;19.40;62.60
75451;DHT22;64029;48.244;9.188;2023-06-04T07:33:14;19.60;62.60
75451;DHT22;64029;48.244;9.188;2023-06-04T07:35:43;19.80;62.40
75451;DHT22;64029;48.244;9.188;2023-06-04T07:38:09;20.10;61.50
75451;DHT22;64029;48.244;9.188;2023-06-04T07:40:36;20.20;60.90
75451;DHT22;64029;48.244;9.188;2023-06-04T07:43:03;20.30;61.00
75451;DHT22;64029;48.244;9.188;2023-06-04T07:45:30;20.50;59.70
75451;DHT22;64029;48.244;9.188;2023-06-04T07:47:57;20.50;59.40
75451;DHT22;64029;48.244;9.188;2023-06-04T07:50:24;20.70;59.40
75451;DHT22;64029;48.244;9.188;2023-06-04T07:52:52;20.90;58.30
75451;DHT22;64029;48.244;9.188;2023-06-04T07:55:19;21.00;58.80
75451;DHT22;64029;48.244;9.188;2023-06-04T07:57:46;21.20;58.20
75451;DHT22;64029;48.244;9.188;2023-06-04T08:00:14;21.30;58.40
75451;DHT22;64029;48.244;9.188;2023-06-04T08:02:46;21.50;58.30
75451;DHT22;64029;48.244;9.188;2023-06-04T08:05:14;21.60;57.30
75451;DHT22;64029;48.244;9.188;2023-06-04T08:07:41;21.70;56.70
75451;DHT22;64029;48.244;9.188;2023-06-04T08:10:10;21.70;56.50
75451;DHT22;64029;48.244;9.188;2023-06-04T08:12:37;21.80;55.80
75451;DHT22;64029;48.244;9.188;2023-06-04T08:15:05;21.90;55.00
75451;DHT22;64029;48.244;9.188;2023-06-04T08:17:32;21.90;54.70
75451;DHT22;64029;48.244;9.188;2023-06-04T08:19:59;22.10;55.70
75451;DHT22;64029;48.244;9.188;2023-06-04T08:22:26;22.20;54.70
75451;DHT22;64029;48.244;9.188;2023-06-04T08:24:54;22.30;55.00
75451;DHT22;64029;48.244;9.188;2023-06-04T08:27:22;22.40;54.80
75451;DHT22;64029;48.244;9.188;2023-06-04T08:29:49;22.40;54.20
75451;DHT22;64029;48.244;9.188;2023-06-04T08:32:17;22.40;53.70
75451;DHT22;64029;48.244;9.188;2023-06-04T08:34:44;22.50;52.80
75451;DHT22;64029;48.244;9.188;2023-06-04T08:37:11;22.60;53.40
75451;DHT22;64029;48.244;9.188;2023-06-04T08:39:38;22.70;53.30
75451;DHT22;64029;48.244;9.188;2023-06-04T08:42:06;22.70;52.30
75451;DHT22;64029;48.244;9.188;2023-06-04T08:44:35;22.80;52.10
75451;DHT22;64029;48.244;9.188;2023-06-04T08:47:03;22.90;52.70
75451;DHT22;64029;48.244;9.188;2023-06-04T08:49:34;22.90;53.00
75451;DHT22;64029;48.244;9.188;2023-06-04T08:52:01;23.00;52.70
75451;DHT22;64029;48.244;9.188;2023-06-04T08:54:29;23.00;52.40
75451;DHT22;64029;48.244;9.188;2023-06-04T08:56:57;23.10;52.80
75451;DHT22;64029;48.244;9.188;2023-06-04T08:59:24;23.10;52.60
75451;DHT22;64029;48.244;9.188;2023-06-04T09:01:53;23.20;52.40
75451;DHT22;64029;48.244;9.188;2023-06-04T09:04:21;23.30;52.50
75451;DHT22;64029;48.244;9.188;2023-06-04T09:06:48;23.30;52.60
75451;DHT22;64029;48.244;9.188;2023-06-04T09:09:15;23.30;51.50
75451;DHT22;64029;48.244;9.188;2023-06-04T09:11:50;23.30;51.60
75451;DHT22;64029;48.244;9.188;2023-06-04T09:14:17;23.30;52.10
75451;DHT22;64029;48.244;9.188;2023-06-04T09:16:49;23.40;51.60
75451;DHT22;64029;48.244;9.188;2023-06-04T09:19:18;23.50;51.90
75451;DHT22;64029;48.244;9.188;2023-06-04T09:21:47;23.50;51.60
75451;DHT22;64029;48.244;9.188;2023-06-04T09:24:14;23.50;51.80
75451;DHT22;64029;48.244;9.188;2023-06-04T09:26:41;23.60;51.20
75451;DHT22;64029;48.244;9.188;2023-06-04T09:29:07;23.60;51.00
75451;DHT22;64029;48.244;9.188;2023-06-04T09:31:34;23.60;51.10
75451;DHT22;64029;48.244;9.188;2023-06-04T09:34:03;23.60;50.40
75451;DHT22;64029;48.244;9.188;2023-06-04T09:36:33;23.60;50.40
75451;DHT22;64029;48.244;9.188;2023-06-04T09:39:01;23.50;49.50
75451;DHT22;64029;48.244;9.188;2023-06-04T09:41:28;23.50;49.70
75451;DHT22;64029;48.244;9.188;2023-06-04T09:44:01;23.50;47.90
75451;DHT22;64029;48.244;9.188;2023-06-04T09:46:29;23.50;49.20
75451;DHT22;64029;48.244;9.188;2023-06-04T09:49:03;23.60;49.80
75451;DHT22;64029;48.244;9.188;2023-06-04T09:51:32;23.70;50.50
75451;DHT22;64029;48.244;9.188;2023-06-04T09:54:01;23.70;50.00
75451;DHT22;64029;48.244;9.188;2023-06-04T09:56:29;23.70;50.60
75451;DHT22;64029;48.244;9.188;2023-06-04T09:58:58;23.60;48.20
75451;DHT22;64029;48.244;9.188;2023-06-04T10:01:28;23.60;49.60
75451;DHT22;64029;48.244;9.188;2023-06-04T10:03:56;23.50;49.10
75451;DHT22;64029;48.244;9.188;2023-06-04T10:06:25;23.50;47.80
75451;DHT22;64029;48.244;9.188;2023-06-04T10:08:55;23.50;49.30
75451;DHT22;64029;48.244;9.188;2023-06-04T10:11:30;23.50;48.30
75451;DHT22;64029;48.244;9.188;2023-06-04T10:14:02;23.40;47.70
75451;DHT22;64029;48.244;9.188;2023-06-04T10:16:30;23.40;49.10
75451;DHT22;64029;48.244;9.188;2023-06-04T10:18:59;23.50;49.70
75451;DHT22;64029;48.244;9.188;2023-06-04T10:21:26;23.50;49.50
75451;DHT22;64029;48.244;9.188;2023-06-04T10:23:59;23.40;49.50
75451;DHT22;64029;48.244;9.188;2023-06-04T10:26:26;23.40;49.60
75451;DHT22;64029;48.244;9.188;2023-06-04T10:28:53;23.40;49.60
75451;DHT22;64029;48.244;9.188;2023-06-04T10:31:22;23.30;48.30
75451;DHT22;64029;48.244;9.188;2023-06-04T10:33:53;23.30;49.60
75451;DHT22;64029;48.244;9.188;2023-06-04T10:36:22;23.40;50.30
75451;DHT22;64029;48.244;9.188;2023-06-04T10:38:50;23.40;49.10
75451;DHT22;64029;48.244;9.188;2023-06-04T10:41:19;23.30;49.50
75451;DHT22;64029;48.244;9.188;2023-06-04T10:43:49;23.30;48.90
75451;DHT22;64029;48.244;9.188;2023-06-04T10:46:17;23.30;49.60
75451;DHT22;64029;48.244;9.188;2023-06-04T10:48:51;23.40;49.90
75451;DHT22;64029;48.244;9.188;2023-06-04T10:51:29;23.40;49.80
75451;DHT22;64029;48.244;9.188;2023-06-04T10:53:57;23.30;50.10
75451;DHT22;64029;48.244;9.188;2023-06-04T10:56:29;23.40;50.50
75451;DHT22;64029;48.244;9.188;2023-06-04T10:58:57;23.30;50.00
75451;DHT22;64029;48.244;9.188;2023-06-04T11:01:25;23.40;50.70
75451;DHT22;64029;48.244;9.188;2023-06-04T11:03:52;23.40;50.80
75451;DHT22;64029;48.244;9.188;2023-06-04T11:06:19;23.30;49.90
75451;DHT22;64029;48.244;9.188;2023-06-04T11:08:46;23.30;49.90
75451;DHT22;64029;48.244;9.188;2023-06-04T11:11:14;23.30;50.50
75451;DHT22;64029;48.244;9.188;2023-06-04T11:13:43;23.20;48.80
75451;DHT22;64029;48.244;9.188;2023-06-04T11:16:17;23.20;50.30
75451;DHT22;64029;48.244;9.188;2023-06-04T11:18:54;23.20;50.40
75451;DHT22;64029;48.244;9.188;2023-06-04T11:21:21;23.10;50.30
75451;DHT22;64029;48.244;9.188;2023-06-04T11:23:48;23.00;49.30
75451;DHT22;64029;48.244;9.188;2023-06-04T11:26:15;22.90;49.20
75451;DHT22;64029;48.244;9.188;2023-06-04T11:28:48;22.90;49.40
75451;DHT22;64029;48.244;9.188;2023-06-04T11:31:15;22.90;48.60
75451;DHT22;64029;48.244;9.188;2023-06-04T11:33:42;22.90;49.50
75451;DHT22;64029;48.244;9.188;2023-06-04T11:36:10;23.00;50.00
75451;DHT22;64029;48.244;9.188;2023-06-04T11:38:37;23.10;50.60
75451;DHT22;64029;48.244;9.188;2023-06-04T11:41:03;23.10;50.50
75451;DHT22;64029;48.244;9.188;2023-06-04T11:43:32;23.10;50.60
75451;DHT22;64029;48.244;9.188;2023-06-04T11:46:05;23.10;50.60
75451;DHT22;64029;48.244;9.188;2023-06-04T11:48:32;23.10;50.60
75451;DHT22;64029;48.244;9.188;2023-06-04T11:51:05;23.10;50.30
75451;DHT22;64029;48.244;9.188;2023-06-04T11:53:33;22.90;48.90
75451;DHT22;64029;48.244;9.188;2023-06-04T11:56:00;22.90;49.70
75451;DHT22;64029;48.244;9.188;2023-06-04T11:58:28;23.00;50.40
75451;DHT22;64029;48.244;9.188;2023-06-04T12:00:55;23.00;50.40
75451;DHT22;64029;48.244;9.188;2023-06-04T12:03:34;23.00;50.60
75451;DHT22;64029;48.244;9.188;2023-06-04T12:06:10;23.10;50.80
75451;DHT22;64029;48.244;9.188;2023-06-04T12:08:45;23.10;50.80
75451;DHT22;64029;48.244;9.188;2023-06-04T12:11:25;23.10;50.60
75451;DHT22;64029;48.244;9.188;2023-06-04T12:13:54;23.20;51.10
75451;DHT22;64029;48.244;9.188;2023-06-04T12:16:21;23.20;51.20
75451;DHT22;64029;48.244;9.188;2023-06-04T12:18:49;23.20;51.00
75451;DHT22;64029;48.244;9.188;2023-06-04T12:21:24;23.10;49.80
75451;DHT22;64029;48.244;9.188;2023-06-04T12:23:53;23.10;50.50
75451;DHT22;64029;48.244;9.188;2023-06-04T12:26:22;23.00;48.90
75451;DHT22;64029;48.244;9.188;2023-06-04T12:29:00;22.80;48.20
75451;DHT22;64029;48.244;9.188;2023-06-04T12:31:26;22.70;46.80
75451;DHT22;64029;48.244;9.188;2023-06-04T12:33:59;22.80;47.90
75451;DHT22;64029;48.244;9.188;2023-06-04T12:36:26;22.90;48.00
75451;DHT22;64029;48.244;9.188;2023-06-04T12:38:55;22.90;47.90
75451;DHT22;64029;48.244;9.188;2023-06-04T12:41:22;23.00;49.50
75451;DHT22;64029;48.244;9.188;2023-06-04T12:43:49;23.10;50.00
75451;DHT22;64029;48.244;9.188;2023-06-04T12:46:16;23.10;50.10
75451;DHT22;64029;48.244;9.188;2023-06-04T12:48:42;23.10;50.10
75451;DHT22;64029;48.244;9.188;2023-06-04T12:51:11;23.10;50.40
75451;DHT22;64029;48.244;9.188;2023-06-04T12:53:38;23.10;50.10
75451;DHT22;64029;48.244;9.188;2023-06-04T12:56:05;23.10;50.10
75451;DHT22;64029;48.244;9.188;2023-06-04T12:58:32;23.10;50.30
75451;DHT22;64029;48.244;9.188;2023-06-04T13:00:59;23.00;48.40
75451;DHT22;64029;48.244;9.188;2023-06-04T13:03:40;22.90;47.50
75451;DHT22;64029;48.244;9.188;2023-06-04T13:06:07;22.90;48.80
75451;DHT22;64029;48.244;9.188;2023-06-04T13:08:36;23.00;49.50
75451;DHT22;64029;48.244;9.188;2023-06-04T13:11:03;23.10;50.00
75451;DHT22;64029;48.244;9.188;2023-06-04T13:13:31;23.10;50.00
75451;DHT22;64029;48.244;9.188;2023-06-04T13:15:58;23.10;49.20
75451;DHT22;64029;48.244;9.188;2023-06-04T13:18:24;23.10;50.10
75451;DHT22;64029;48.244;9.188;2023-06-04T13:20:51;23.00;47.50
75451;DHT22;64029;48.244;9.188;2023-06-04T13:23:18;22.90;47.90
75451;DHT22;64029;48.244;9.188;2023-06-04T13:25:46;22.90;48.50
75451;DHT22;64029;48.244;9.188;2023-06-04T13:28:13;22.90;48.40
75451;DHT22;64029;48.244;9.188;2023-06-04T13:30:41;22.90;47.40
75451;DHT22;64029;48.244;9.188;2023-06-04T13:46:37;23.10;48.50
75451;DHT22;64029;48.244;9.188;2023-06-04T13:49:07;23.00;49.40
75451;DHT22;64029;48.244;9.188;2023-06-04T13:51:34;23.00;49.50
75451;DHT22;64029;48.244;9.188;2023-06-04T13:54:01;23.00;49.40
75451;DHT22;64029;48.244;9.188;2023-06-04T13:56:28;23.10;49.50
75451;DHT22;64029;48.244;9.188;2023-06-04T13:58:55;23.00;48.50
75451;DHT22;64029;48.244;9.188;2023-06-04T14:01:22;23.00;48.10
75451;DHT22;64029;48.244;9.188;2023-06-04T14:03:50;22.90;46.00
75451;DHT22;64029;48.244;9.188;2023-06-04T14:06:17;22.80;45.70
75451;DHT22;64029;48.244;9.188;2023-06-04T14:08:44;22.90;46.60
75451;DHT22;64029;48.244;9.188;2023-06-04T14:11:11;22.90;45.80
75451;DHT22;64029;48.244;9.188;2023-06-04T14:13:37;22.80;45.90
75451;DHT22;64029;48.244;9.188;2023-06-04T14:16:06;22.80;45.90
75451;DHT22;64029;48.244;9.188;2023-06-04T14:18:33;22.80;45.70
75451;DHT22;64029;48.244;9.188;2023-06-04T14:21:01;22.80;47.00
75451;DHT22;64029;48.244;9.188;2023-06-04T14:23:28;22.90;47.20
75451;DHT22;64029;48.244;9.188;2023-06-04T14:25:55;22.80;46.10
75451;DHT22;64029;48.244;9.188;2023-06-04T14:28:22;22.90;47.50
75451;DHT22;64029;48.244;9.188;2023-06-04T14:30:49;22.90;46.10
75451;DHT22;64029;48.244;9.188;2023-06-04T14:33:16;22.80;46.60
75451;DHT22;64029;48.244;9.188;2023-06-04T14:35:42;22.90;47.50
75451;DHT22;64029;48.244;9.188;2023-06-04T14:38:13;23.00;48.10
75451;DHT22;64029;48.244;9.188;2023-06-04T14:40:41;22.90;45.50
75451;DHT22;64029;48.244;9.188;2023-06-04T14:43:09;23.00;47.50
75451;DHT22;64029;48.244;9.188;2023-06-04T14:45:36;23.10;48.10
75451;DHT22;64029;48.244;9.188;2023-06-04T14:48:05;23.00;46.30
75451;DHT22;64029;48.244;9.188;2023-06-04T14:50:32;22.90;46.10
75451;DHT22;64029;48.244;9.188;2023-06-04T14:52:59;22.80;45.00
75451;DHT22;64029;48.244;9.188;2023-06-04T14:55:27;22.80;46.90
75451;DHT22;64029;48.244;9.188;2023-06-04T14:57:54;22.90;47.70
75451;DHT22;64029;48.244;9.188;2023-06-04T15:00:21;22.90;47.90
75451;DHT22;64029;48.244;9.188;2023-06-04T15:02:47;23.00;48.30
75451;DHT22;64029;48.244;9.188;2023-06-04T15:05:14;23.00;48.60
75451;DHT22;64029;48.244;9.188;2023-06-04T15:07:41;23.00;48.50
75451;DHT22;64029;48.244;9.188;2023-06-04T15:10:08;23.00;48.70
75451;DHT22;64029;48.244;9.188;2023-06-04T15:12:36;22.90;48.80
75451;DHT22;64029;48.244;9.188;2023-06-04T15:15:05;22.90;49.00
75451;DHT22;64029;48.244;9.188;2023-06-04T15:17:33;22.90;49.00
75451;DHT22;64029;48.244;9.188;2023-06-04T15:20:00;22.90;49.20
75451;DHT22;64029;48.244;9.188;2023-06-04T15:22:30;22.90;49.20
75451;DHT22;64029;48.244;9.188;2023-06-04T15:24:57;22.80;48.40
75451;DHT22;64029;48.244;9.188;2023-06-04T15:27:24;22.80;48.60
75451;DHT22;64029;48.244;9.188;2023-06-04T15:29:52;22.80;48.80
75451;DHT22;64029;48.244;9.188;2023-06-04T15:32:19;22.80;49.10
75451;DHT22;64029;48.244;9.188;2023-06-04T15:34:46;22.80;48.70
75451;DHT22;64029;48.244;9.188;2023-06-04T15:37:13;22.80;49.20
75451;DHT22;64029;48.244;9.188;2023-06-04T15:39:40;22.80;49.40
75451;DHT22;64029;48.244;9.188;2023-06-04T15:42:07;22.70;49.10
75451;DHT22;64029;48.244;9.188;2023-06-04T15:44:34;22.70;49.50
75451;DHT22;64029;48.244;9.188;2023-06-04T15:47:02;22.70;49.50